sensor_id;sensor_type;location;lat;lon;timestamp;temperature;humidity
31729;DHT22;18309;43.658;1.312;2023-01-29T00:01:05;5.10;99.90
31729;DHT22;18309;43.658;1.312;2023-01-29T00:03:33;5.10;99.90
31729;DHT22;18309;43.658;1.312;2023-01-29T00:06:00;5.10;99.90
31729;DHT22;18309;43.658;1.312;2023-01-29T00:08:29;5.10;99.90
31729;DHT22;18309;43.658;1.312;2023-01-29T00:11:00;5.10;99.90
31729;DHT22;18309;43.658;1.312;2023-01-29T00:13:27;5.10;99.90
31729;DHT22;18309;43.658;1.312;2023-01-29T00:15:54;5.10;99.90
31729;DHT22;18309;43.658;1.312;2023-01-29T00:18:20;5.10;99.90
31729;DHT22;18309;43.658;1.312;2023-01-29T00:20:46;5.10;99.90
31729;DHT22;18309;43.658;1.312;2023-01-29T00:23:12;5.10;99.90
31729;DHT22;18309;43.658;1.312;2023-01-29T00:25:37;5.10;99.90
31729;DHT22;18309;43.658;1.312;2023-01-29T00:28:04;5.10;99.90
31729;DHT22;18309;43.658;1.312;2023-01-29T00:30:29;5.10;99.90
31729;DHT22;18309;43.658;1.312;2023-01-29T00:32:56;5.10;99.90
31729;DHT22;18309;43.658;1.312;2023-01-29T00:35:22;5.10;99.90
31729;DHT22;18309;43.658;1.312;2023-01-29T00:37:47;5.10;99.90
31729;DHT22;18309;43.658;1.312;2023-01-29T00:40:13;5.10;99.90
31729;DHT22;18309;43.658;1.312;2023-01-29T00:42:39;5.10;99.90
31729;DHT22;18309;43.658;1.312;2023-01-29T00:45:23;5.10;99.90
31729;DHT22;18309;43.658;1.312;2023-01-29T00:47:48;5.10;99.90
31729;DHT22;18309;43.658;1.312;2023-01-29T00:50:14;5.10;99.90
31729;DHT22;18309;43.658;1.312;2023-01-29T00:52:41;5.10;99.90
31729;DHT22;18309;43.658;1.312;2023-01-29T00:55:08;5.00;99.90
31729;DHT22;18309;43.658;1.312;2023-01-29T00:57:35;5.00;99.90
31729;DHT22;18309;43.658;1.312;2023-01-29T01:00:02;5.00;99.90
31729;DHT22;18309;43.658;1.312;2023-01-29T01:02:28;5.00;99.90
31729;DHT22;18309;43.658;1.312;2023-01-29T01:05:17;5.00;99.90
31729;DHT22;18309;43.658;1.312;2023-01-29T01:07:45;5.10;99.90
31729;DHT22;18309;43.658;1.312;2023-01-29T01:10:21;5.10;99.90
31729;DHT22;18309;43.658;1.312;2023-01-29T01:12:49;5.10;99.90
31729;DHT22;18309;43.658;1.312;2023-01-29T01:15:17;5.00;99.90
31729;DHT22;18309;43.658;1.312;2023-01-29T01:17:42;5.10;99.90
31729;DHT22;18309;43.658;1.312;2023-01-29T01:20:10;5.10;99.90
31729;DHT22;18309;43.658;1.312;2023-01-29T01:22:36;5.00;99.90
31729;DHT22;18309;43.658;1.312;2023-01-29T01:25:01;5.10;99.90
31729;DHT22;18309;43.658;1.312;2023-01-29T01:27:27;5.00;99.90
31729;DHT22;18309;43.658;1.312;2023-01-29T01:29:53;5.00;99.90
31729;DHT22;18309;43.658;1.312;2023-01-29T01:32:18;5.00;99.90
31729;DHT22;18309;43.658;1.312;2023-01-29T01:34:44;5.00;99.90
31729;DHT22;18309;43.658;1.312;2023-01-29T01:37:10;5.00;99.90
31729;DHT22;18309;43.658;1.312;2023-01-29T01:39:35;5.00;99.90
31729;DHT22;18309;43.658;1.312;2023-01-29T01:42:01;5.00;99.90
31729;DHT22;18309;43.658;1.312;2023-01-29T01:47:14;5.00;99.90
31729;DHT22;18309;43.658;1.312;2023-01-29T01:49:41;5.00;99.90
31729;DHT22;18309;43.658;1.312;2023-01-29T01:52:07;5.00;99.90
31729;DHT22;18309;43.658;1.312;2023-01-29T01:54:33;5.00;99.90
31729;DHT22;18309;43.658;1.312;2023-01-29T01:57:06;5.00;99.90
31729;DHT22;18309;43.658;1.312;2023-01-29T01:59:45;5.00;99.90
31729;DHT22;18309;43.658;1.312;2023-01-29T02:02:11;5.00;99.90
31729;DHT22;18309;43.658;1.312;2023-01-29T02:04:56;5.00;99.90
31729;DHT22;18309;43.658;1.312;2023-01-29T02:07:46;5.00;99.90
31729;DHT22;18309;43.658;1.312;2023-01-29T02:10:37;5.00;99.90
31729;DHT22;18309;43.658;1.312;2023-01-29T02:13:05;5.00;99.90
31729;DHT22;18309;43.658;1.312;2023-01-29T02:15:32;5.00;99.90
31729;DHT22;18309;43.658;1.312;2023-01-29T02:17:58;5.00;99.90
31729;DHT22;18309;43.658;1.312;2023-01-29T02:20:26;5.00;99.90
31729;DHT22;18309;43.658;1.312;2023-01-29T02:31:31;5.00;99.90
31729;DHT22;18309;43.658;1.312;2023-01-29T02:34:36;5.00;99.90
31729;DHT22;18309;43.658;1.312;2023-01-29T02:37:33;5.00;99.90
31729;DHT22;18309;43.658;1.312;2023-01-29T02:46:15;5.00;99.90
31729;DHT22;18309;43.658;1.312;2023-01-29T02:51:46;5.00;99.90
31729;DHT22;18309;43.658;1.312;2023-01-29T03:00:07;5.00;99.90
31729;DHT22;18309;43.658;1.312;2023-01-29T03:02:59;4.90;99.90
31729;DHT22;18309;43.658;1.312;2023-01-29T03:08:35;4.90;99.90
31729;DHT22;18309;43.658;1.312;2023-01-29T03:11:07;4.90;99.90
31729;DHT22;18309;43.658;1.312;2023-01-29T03:13:52;4.90;99.90
31729;DHT22;18309;43.658;1.312;2023-01-29T03:19:12;4.80;99.90
31729;DHT22;18309;43.658;1.312;2023-01-29T03:21:43;4.90;99.90
31729;DHT22;18309;43.658;1.312;2023-01-29T03:27:27;4.90;99.90
31729;DHT22;18309;43.658;1.312;2023-01-29T03:30:15;4.90;99.90
31729;DHT22;18309;43.658;1.312;2023-01-29T03:33:05;4.90;99.90
31729;DHT22;18309;43.658;1.312;2023-01-29T03:35:34;4.90;99.90
31729;DHT22;18309;43.658;1.312;2023-01-29T03:38:03;4.90;99.90
31729;DHT22;18309;43.658;1.312;2023-01-29T03:46:11;4.90;99.90
31729;DHT22;18309;43.658;1.312;2023-01-29T03:49:42;4.90;99.90
31729;DHT22;18309;43.658;1.312;2023-01-29T04:02:02;4.90;99.90
31729;DHT22;18309;43.658;1.312;2023-01-29T04:04:33;4.90;99.90
31729;DHT22;18309;43.658;1.312;2023-01-29T04:07:13;4.90;99.90
31729;DHT22;18309;43.658;1.312;2023-01-29T04:10:08;4.90;99.90
31729;DHT22;18309;43.658;1.312;2023-01-29T04:12:50;4.90;99.90
31729;DHT22;18309;43.658;1.312;2023-01-29T04:15:17;4.90;99.90
31729;DHT22;18309;43.658;1.312;2023-01-29T04:17:49;4.90;99.90
31729;DHT22;18309;43.658;1.312;2023-01-29T04:20:16;4.90;99.90
31729;DHT22;18309;43.658;1.312;2023-01-29T04:22:45;4.90;99.90
31729;DHT22;18309;43.658;1.312;2023-01-29T04:25:14;4.90;99.90
31729;DHT22;18309;43.658;1.312;2023-01-29T04:30:25;4.90;99.90
31729;DHT22;18309;43.658;1.312;2023-01-29T04:33:02;4.90;99.90
31729;DHT22;18309;43.658;1.312;2023-01-29T04:46:54;4.90;99.90
31729;DHT22;18309;43.658;1.312;2023-01-29T04:57:52;4.80;99.90
31729;DHT22;18309;43.658;1.312;2023-01-29T05:00:25;4.90;99.90
31729;DHT22;18309;43.658;1.312;2023-01-29T05:02:52;4.90;99.90
31729;DHT22;18309;43.658;1.312;2023-01-29T05:05:19;4.80;99.90
31729;DHT22;18309;43.658;1.312;2023-01-29T05:07:46;4.80;99.90
31729;DHT22;18309;43.658;1.312;2023-01-29T05:10:14;4.90;99.90
31729;DHT22;18309;43.658;1.312;2023-01-29T05:12:44;4.80;99.90
31729;DHT22;18309;43.658;1.312;2023-01-29T05:15:13;4.90;99.90
31729;DHT22;18309;43.658;1.312;2023-01-29T05:17:41;4.80;99.90
31729;DHT22;18309;43.658;1.312;2023-01-29T05:20:09;4.90;99.90
31729;DHT22;18309;43.658;1.312;2023-01-29T05:22:38;4.80;99.90
31729;DHT22;18309;43.658;1.312;2023-01-29T05:25:19;4.80;99.90
31729;DHT22;18309;43.658;1.312;2023-01-29T05:27:48;4.90;99.90
31729;DHT22;18309;43.658;1.312;2023-01-29T05:30:37;4.80;99.90
31729;DHT22;18309;43.658;1.312;2023-01-29T05:33:08;4.80;99.90
31729;DHT22;18309;43.658;1.312;2023-01-29T05:35:35;4.80;99.90
31729;DHT22;18309;43.658;1.312;2023-01-29T05:38:01;4.80;99.90
31729;DHT22;18309;43.658;1.312;2023-01-29T05:40:27;4.80;99.90
31729;DHT22;18309;43.658;1.312;2023-01-29T05:42:53;4.80;99.90
31729;DHT22;18309;43.658;1.312;2023-01-29T05:45:19;4.90;99.90
31729;DHT22;18309;43.658;1.312;2023-01-29T05:47:45;4.80;99.90
31729;DHT22;18309;43.658;1.312;2023-01-29T05:50:12;4.80;99.90
31729;DHT22;18309;43.658;1.312;2023-01-29T05:52:39;4.80;99.90
31729;DHT22;18309;43.658;1.312;2023-01-29T05:55:06;4.80;99.90
31729;DHT22;18309;43.658;1.312;2023-01-29T05:57:32;4.90;99.90
31729;DHT22;18309;43.658;1.312;2023-01-29T05:59:57;4.80;99.90
31729;DHT22;18309;43.658;1.312;2023-01-29T06:02:23;4.80;99.90
31729;DHT22;18309;43.658;1.312;2023-01-29T06:04:50;4.80;99.90
31729;DHT22;18309;43.658;1.312;2023-01-29T06:07:17;4.80;99.90
31729;DHT22;18309;43.658;1.312;2023-01-29T06:09:43;4.80;99.90
31729;DHT22;18309;43.658;1.312;2023-01-29T06:12:09;4.80;99.90
31729;DHT22;18309;43.658;1.312;2023-01-29T06:14:34;4.80;99.90
31729;DHT22;18309;43.658;1.312;2023-01-29T06:17:00;4.80;99.90
31729;DHT22;18309;43.658;1.312;2023-01-29T06:19:26;4.80;99.90
31729;DHT22;18309;43.658;1.312;2023-01-29T06:21:51;4.80;99.90
31729;DHT22;18309;43.658;1.312;2023-01-29T06:24:17;4.90;99.90
31729;DHT22;18309;43.658;1.312;2023-01-29T06:26:42;4.80;99.90
31729;DHT22;18309;43.658;1.312;2023-01-29T06:29:08;4.90;99.90
31729;DHT22;18309;43.658;1.312;2023-01-29T06:31:34;4.80;99.90
31729;DHT22;18309;43.658;1.312;2023-01-29T06:33:59;4.80;99.90
31729;DHT22;18309;43.658;1.312;2023-01-29T06:36:25;4.80;99.90
31729;DHT22;18309;43.658;1.312;2023-01-29T06:38:51;4.80;99.90
31729;DHT22;18309;43.658;1.312;2023-01-29T06:41:18;4.80;99.90
31729;DHT22;18309;43.658;1.312;2023-01-29T06:43:44;4.80;99.90
31729;DHT22;18309;43.658;1.312;2023-01-29T06:46:10;4.80;99.90
31729;DHT22;18309;43.658;1.312;2023-01-29T06:48:36;4.80;99.90
31729;DHT22;18309;43.658;1.312;2023-01-29T06:51:06;4.80;99.90
31729;DHT22;18309;43.658;1.312;2023-01-29T06:53:34;4.80;99.90
31729;DHT22;18309;43.658;1.312;2023-01-29T06:56:00;4.80;99.90
31729;DHT22;18309;43.658;1.312;2023-01-29T06:58:25;4.80;99.90
31729;DHT22;18309;43.658;1.312;2023-01-29T07:00:51;4.80;99.90
31729;DHT22;18309;43.658;1.312;2023-01-29T07:03:17;4.80;99.90
31729;DHT22;18309;43.658;1.312;2023-01-29T07:05:49;4.80;99.90
31729;DHT22;18309;43.658;1.312;2023-01-29T07:08:16;4.80;99.90
31729;DHT22;18309;43.658;1.312;2023-01-29T07:10:41;4.80;99.90
31729;DHT22;18309;43.658;1.312;2023-01-29T07:13:07;4.80;99.90
31729;DHT22;18309;43.658;1.312;2023-01-29T07:15:33;4.80;99.90
31729;DHT22;18309;43.658;1.312;2023-01-29T07:18:00;4.80;99.90
31729;DHT22;18309;43.658;1.312;2023-01-29T07:20:29;4.80;99.90
31729;DHT22;18309;43.658;1.312;2023-01-29T07:22:56;4.80;99.90
31729;DHT22;18309;43.658;1.312;2023-01-29T07:25:22;4.80;99.90
31729;DHT22;18309;43.658;1.312;2023-01-29T07:27:48;4.80;99.90
31729;DHT22;18309;43.658;1.312;2023-01-29T07:30:15;4.80;99.90
31729;DHT22;18309;43.658;1.312;2023-01-29T07:32:40;4.80;99.90
31729;DHT22;18309;43.658;1.312;2023-01-29T07:35:07;4.80;99.90
31729;DHT22;18309;43.658;1.312;2023-01-29T07:37:32;4.90;99.90
31729;DHT22;18309;43.658;1.312;2023-01-29T07:39:58;4.80;99.90
31729;DHT22;18309;43.658;1.312;2023-01-29T07:42:24;4.80;99.90
31729;DHT22;18309;43.658;1.312;2023-01-29T07:44:49;4.80;99.90
31729;DHT22;18309;43.658;1.312;2023-01-29T07:47:15;4.80;99.90
31729;DHT22;18309;43.658;1.312;2023-01-29T07:49:41;4.80;99.90
31729;DHT22;18309;43.658;1.312;2023-01-29T07:52:06;4.80;99.90
31729;DHT22;18309;43.658;1.312;2023-01-29T07:54:32;4.80;99.90
31729;DHT22;18309;43.658;1.312;2023-01-29T07:56:57;4.80;99.90
31729;DHT22;18309;43.658;1.312;2023-01-29T07:59:23;4.80;99.90
31729;DHT22;18309;43.658;1.312;2023-01-29T08:01:49;4.80;99.90
31729;DHT22;18309;43.658;1.312;2023-01-29T08:04:14;4.80;99.90
31729;DHT22;18309;43.658;1.312;2023-01-29T08:06:40;4.80;99.90
31729;DHT22;18309;43.658;1.312;2023-01-29T08:09:06;4.80;99.90
31729;DHT22;18309;43.658;1.312;2023-01-29T08:11:33;4.80;99.90
31729;DHT22;18309;43.658;1.312;2023-01-29T08:13:58;4.80;99.90
31729;DHT22;18309;43.658;1.312;2023-01-29T08:16:24;4.80;99.90
31729;DHT22;18309;43.658;1.312;2023-01-29T08:18:49;4.80;99.90
31729;DHT22;18309;43.658;1.312;2023-01-29T08:21:15;4.80;99.90
31729;DHT22;18309;43.658;1.312;2023-01-29T08:23:41;4.80;99.90
31729;DHT22;18309;43.658;1.312;2023-01-29T08:26:07;4.90;99.90
31729;DHT22;18309;43.658;1.312;2023-01-29T08:28:33;4.80;99.90
31729;DHT22;18309;43.658;1.312;2023-01-29T08:30:59;4.80;99.90
31729;DHT22;18309;43.658;1.312;2023-01-29T08:33:26;4.90;99.90
31729;DHT22;18309;43.658;1.312;2023-01-29T08:35:53;4.90;99.90
31729;DHT22;18309;43.658;1.312;2023-01-29T08:38:19;4.90;99.90
31729;DHT22;18309;43.658;1.312;2023-01-29T08:40:45;4.90;99.90
31729;DHT22;18309;43.658;1.312;2023-01-29T08:43:12;4.90;99.90
31729;DHT22;18309;43.658;1.312;2023-01-29T08:45:42;4.50;99.90
31729;DHT22;18309;43.658;1.312;2023-01-29T08:48:08;4.30;99.90
31729;DHT22;18309;43.658;1.312;2023-01-29T08:50:34;4.30;99.90
31729;DHT22;18309;43.658;1.312;2023-01-29T08:53:02;4.10;99.90
31729;DHT22;18309;43.658;1.312;2023-01-29T08:55:28;4.10;99.90
31729;DHT22;18309;43.658;1.312;2023-01-29T08:57:54;4.10;99.90
31729;DHT22;18309;43.658;1.312;2023-01-29T09:00:21;4.10;99.90
31729;DHT22;18309;43.658;1.312;2023-01-29T09:02:47;4.10;99.90
31729;DHT22;18309;43.658;1.312;2023-01-29T09:05:13;4.10;99.90
31729;DHT22;18309;43.658;1.312;2023-01-29T09:07:38;4.20;99.90
31729;DHT22;18309;43.658;1.312;2023-01-29T09:10:05;4.30;99.90
31729;DHT22;18309;43.658;1.312;2023-01-29T09:12:30;4.20;99.90
31729;DHT22;18309;43.658;1.312;2023-01-29T09:14:56;4.20;99.90
31729;DHT22;18309;43.658;1.312;2023-01-29T09:17:22;4.20;99.90
31729;DHT22;18309;43.658;1.312;2023-01-29T09:19:48;4.20;99.90
31729;DHT22;18309;43.658;1.312;2023-01-29T09:22:14;4.10;99.90
31729;DHT22;18309;43.658;1.312;2023-01-29T09:24:39;4.10;99.90
31729;DHT22;18309;43.658;1.312;2023-01-29T09:27:05;4.10;99.90
31729;DHT22;18309;43.658;1.312;2023-01-29T09:29:31;4.20;99.90
31729;DHT22;18309;43.658;1.312;2023-01-29T09:31:56;4.10;99.90
31729;DHT22;18309;43.658;1.312;2023-01-29T09:34:22;4.20;99.90
31729;DHT22;18309;43.658;1.312;2023-01-29T09:36:47;4.20;99.90
31729;DHT22;18309;43.658;1.312;2023-01-29T09:39:13;4.20;99.90
31729;DHT22;18309;43.658;1.312;2023-01-29T09:46:59;4.00;99.90
31729;DHT22;18309;43.658;1.312;2023-01-29T09:49:31;4.20;99.90
31729;DHT22;18309;43.658;1.312;2023-01-29T10:18:23;4.90;99.90
31729;DHT22;18309;43.658;1.312;2023-01-29T10:25:51;5.10;99.90
31729;DHT22;18309;43.658;1.312;2023-01-29T10:28:43;5.00;99.90
31729;DHT22;18309;43.658;1.312;2023-01-29T10:33:50;5.00;99.90
31729;DHT22;18309;43.658;1.312;2023-01-29T10:36:25;5.00;99.90
31729;DHT22;18309;43.658;1.312;2023-01-29T10:38:53;4.90;99.90
31729;DHT22;18309;43.658;1.312;2023-01-29T11:00:25;5.20;99.90
31729;DHT22;18309;43.658;1.312;2023-01-29T11:02:50;5.20;99.90
31729;DHT22;18309;43.658;1.312;2023-01-29T11:05:34;5.30;99.90
31729;DHT22;18309;43.658;1.312;2023-01-29T11:08:13;5.30;99.90
31729;DHT22;18309;43.658;1.312;2023-01-29T11:11:01;5.40;99.90
31729;DHT22;18309;43.658;1.312;2023-01-29T11:13:33;5.50;99.90
31729;DHT22;18309;43.658;1.312;2023-01-29T11:18:56;5.50;99.90
31729;DHT22;18309;43.658;1.312;2023-01-29T11:21:23;5.60;99.90
31729;DHT22;18309;43.658;1.312;2023-01-29T11:23:49;5.60;99.90
31729;DHT22;18309;43.658;1.312;2023-01-29T11:26:20;5.60;99.90
31729;DHT22;18309;43.658;1.312;2023-01-29T11:28:49;5.60;99.90
31729;DHT22;18309;43.658;1.312;2023-01-29T11:31:22;5.60;99.90
31729;DHT22;18309;43.658;1.312;2023-01-29T11:33:53;5.60;99.90
31729;DHT22;18309;43.658;1.312;2023-01-29T11:36:34;5.60;99.90
31729;DHT22;18309;43.658;1.312;2023-01-29T11:44:27;5.70;99.90
31729;DHT22;18309;43.658;1.312;2023-01-29T11:46:54;5.80;99.90
31729;DHT22;18309;43.658;1.312;2023-01-29T11:49:28;5.80;99.90
31729;DHT22;18309;43.658;1.312;2023-01-29T11:51:55;5.80;99.80
31729;DHT22;18309;43.658;1.312;2023-01-29T11:54:25;5.80;99.90
31729;DHT22;18309;43.658;1.312;2023-01-29T11:56:54;5.80;99.90
31729;DHT22;18309;43.658;1.312;2023-01-29T12:01:55;5.70;99.90
31729;DHT22;18309;43.658;1.312;2023-01-29T12:04:28;5.70;99.70
31729;DHT22;18309;43.658;1.312;2023-01-29T12:06:54;5.80;99.90
31729;DHT22;18309;43.658;1.312;2023-01-29T12:09:24;5.90;99.90
31729;DHT22;18309;43.658;1.312;2023-01-29T12:11:53;5.90;99.90
31729;DHT22;18309;43.658;1.312;2023-01-29T12:14:30;5.90;99.90
31729;DHT22;18309;43.658;1.312;2023-01-29T12:17:18;5.90;99.90
31729;DHT22;18309;43.658;1.312;2023-01-29T12:19:56;6.00;99.70
31729;DHT22;18309;43.658;1.312;2023-01-29T12:22:41;5.90;99.60
31729;DHT22;18309;43.658;1.312;2023-01-29T12:27:52;5.80;99.70
31729;DHT22;18309;43.658;1.312;2023-01-29T12:33:13;6.00;99.80
31729;DHT22;18309;43.658;1.312;2023-01-29T12:35:45;6.00;99.10
31729;DHT22;18309;43.658;1.312;2023-01-29T12:38:19;6.10;98.60
31729;DHT22;18309;43.658;1.312;2023-01-29T12:40:52;6.10;98.80
31729;DHT22;18309;43.658;1.312;2023-01-29T12:43:39;6.10;99.00
31729;DHT22;18309;43.658;1.312;2023-01-29T12:46:30;6.10;99.10
31729;DHT22;18309;43.658;1.312;2023-01-29T12:49:00;6.10;98.50
31729;DHT22;18309;43.658;1.312;2023-01-29T12:51:49;6.10;98.50
31729;DHT22;18309;43.658;1.312;2023-01-29T12:54:21;6.10;98.60
31729;DHT22;18309;43.658;1.312;2023-01-29T12:56:52;6.10;98.20
31729;DHT22;18309;43.658;1.312;2023-01-29T13:02:31;6.10;98.30
31729;DHT22;18309;43.658;1.312;2023-01-29T13:07:57;6.10;96.90
31729;DHT22;18309;43.658;1.312;2023-01-29T13:10:31;6.10;97.00
31729;DHT22;18309;43.658;1.312;2023-01-29T13:13:29;6.10;97.50
31729;DHT22;18309;43.658;1.312;2023-01-29T13:15:55;6.10;97.30
31729;DHT22;18309;43.658;1.312;2023-01-29T13:18:45;6.10;97.80
31729;DHT22;18309;43.658;1.312;2023-01-29T13:21:15;6.10;98.20
31729;DHT22;18309;43.658;1.312;2023-01-29T13:23:54;6.20;98.80
31729;DHT22;18309;43.658;1.312;2023-01-29T13:26:21;6.10;97.90
31729;DHT22;18309;43.658;1.312;2023-01-29T13:28:48;6.10;98.00
31729;DHT22;18309;43.658;1.312;2023-01-29T13:31:33;6.10;98.20
31729;DHT22;18309;43.658;1.312;2023-01-29T13:36:51;6.00;98.20
31729;DHT22;18309;43.658;1.312;2023-01-29T13:39:35;6.00;98.50
31729;DHT22;18309;43.658;1.312;2023-01-29T13:42:32;6.00;99.00
31729;DHT22;18309;43.658;1.312;2023-01-29T13:45:02;5.90;99.10
31729;DHT22;18309;43.658;1.312;2023-01-29T13:47:29;5.90;99.10
31729;DHT22;18309;43.658;1.312;2023-01-29T13:50:00;6.00;99.00
31729;DHT22;18309;43.658;1.312;2023-01-29T13:52:34;5.90;98.30
31729;DHT22;18309;43.658;1.312;2023-01-29T13:55:02;5.80;98.10
31729;DHT22;18309;43.658;1.312;2023-01-29T13:57:56;5.80;98.20
31729;DHT22;18309;43.658;1.312;2023-01-29T14:10:29;5.90;98.50
31729;DHT22;18309;43.658;1.312;2023-01-29T14:15:44;5.90;99.00
31729;DHT22;18309;43.658;1.312;2023-01-29T14:23:38;6.00;98.70
31729;DHT22;18309;43.658;1.312;2023-01-29T14:26:23;6.00;98.70
31729;DHT22;18309;43.658;1.312;2023-01-29T14:31:36;5.90;97.20
31729;DHT22;18309;43.658;1.312;2023-01-29T14:34:11;5.90;97.70
31729;DHT22;18309;43.658;1.312;2023-01-29T14:36:40;6.00;98.00
31729;DHT22;18309;43.658;1.312;2023-01-29T14:41:46;6.00;97.50
31729;DHT22;18309;43.658;1.312;2023-01-29T14:48:03;6.00;97.80
31729;DHT22;18309;43.658;1.312;2023-01-29T14:53:14;6.00;97.90
31729;DHT22;18309;43.658;1.312;2023-01-29T14:55:54;6.00;98.00
31729;DHT22;18309;43.658;1.312;2023-01-29T15:00:58;5.90;98.20
31729;DHT22;18309;43.658;1.312;2023-01-29T15:03:40;5.90;98.10
31729;DHT22;18309;43.658;1.312;2023-01-29T15:06:09;5.90;98.10
31729;DHT22;18309;43.658;1.312;2023-01-29T15:08:54;5.90;98.10
31729;DHT22;18309;43.658;1.312;2023-01-29T15:11:34;5.90;97.60
31729;DHT22;18309;43.658;1.312;2023-01-29T15:14:30;5.90;97.40
31729;DHT22;18309;43.658;1.312;2023-01-29T15:19:45;5.90;97.40
31729;DHT22;18309;43.658;1.312;2023-01-29T15:22:16;5.90;97.10
31729;DHT22;18309;43.658;1.312;2023-01-29T15:24:43;5.90;97.00
31729;DHT22;18309;43.658;1.312;2023-01-29T15:27:14;5.90;95.90
31729;DHT22;18309;43.658;1.312;2023-01-29T15:29:45;5.90;95.70
31729;DHT22;18309;43.658;1.312;2023-01-29T15:32:30;5.90;95.40
31729;DHT22;18309;43.658;1.312;2023-01-29T15:34:57;5.90;95.50
31729;DHT22;18309;43.658;1.312;2023-01-29T15:37:31;6.00;95.80
31729;DHT22;18309;43.658;1.312;2023-01-29T15:39:58;5.90;96.10
31729;DHT22;18309;43.658;1.312;2023-01-29T15:42:28;6.00;96.10
31729;DHT22;18309;43.658;1.312;2023-01-29T15:45:28;6.00;96.10
31729;DHT22;18309;43.658;1.312;2023-01-29T15:47:56;6.00;95.70
31729;DHT22;18309;43.658;1.312;2023-01-29T15:50:23;6.00;95.90
31729;DHT22;18309;43.658;1.312;2023-01-29T15:52:50;6.00;96.40
31729;DHT22;18309;43.658;1.312;2023-01-29T15:55:20;6.00;96.20
31729;DHT22;18309;43.658;1.312;2023-01-29T15:57:48;6.00;96.60
31729;DHT22;18309;43.658;1.312;2023-01-29T16:00:23;6.00;96.80
31729;DHT22;18309;43.658;1.312;2023-01-29T16:02:51;6.00;97.00
31729;DHT22;18309;43.658;1.312;2023-01-29T16:05:20;6.00;97.10
31729;DHT22;18309;43.658;1.312;2023-01-29T16:07:48;6.00;97.30
31729;DHT22;18309;43.658;1.312;2023-01-29T16:10:26;5.90;96.90
31729;DHT22;18309;43.658;1.312;2023-01-29T16:12:53;6.00;97.10
31729;DHT22;18309;43.658;1.312;2023-01-29T16:15:29;5.90;97.30
31729;DHT22;18309;43.658;1.312;2023-01-29T16:17:57;6.00;97.50
31729;DHT22;18309;43.658;1.312;2023-01-29T16:20:31;5.90;97.80
31729;DHT22;18309;43.658;1.312;2023-01-29T16:23:00;5.90;97.60
31729;DHT22;18309;43.658;1.312;2023-01-29T16:25:28;5.90;97.20
31729;DHT22;18309;43.658;1.312;2023-01-29T16:27:55;5.90;97.00
31729;DHT22;18309;43.658;1.312;2023-01-29T16:30:39;5.80;97.30
31729;DHT22;18309;43.658;1.312;2023-01-29T16:33:06;5.90;97.20
31729;DHT22;18309;43.658;1.312;2023-01-29T16:35:33;5.80;97.30
31729;DHT22;18309;43.658;1.312;2023-01-29T16:38:03;5.80;97.00
31729;DHT22;18309;43.658;1.312;2023-01-29T16:40:35;5.80;97.00
31729;DHT22;18309;43.658;1.312;2023-01-29T16:45:39;5.70;97.10
31729;DHT22;18309;43.658;1.312;2023-01-29T16:48:32;5.70;97.10
31729;DHT22;18309;43.658;1.312;2023-01-29T16:56:36;5.70;96.80
31729;DHT22;18309;43.658;1.312;2023-01-29T16:59:04;5.70;96.40
31729;DHT22;18309;43.658;1.312;2023-01-29T17:01:31;5.70;96.50
31729;DHT22;18309;43.658;1.312;2023-01-29T17:04:06;5.70;96.60
31729;DHT22;18309;43.658;1.312;2023-01-29T17:06:34;5.70;96.80
31729;DHT22;18309;43.658;1.312;2023-01-29T17:09:01;5.70;96.40
31729;DHT22;18309;43.658;1.312;2023-01-29T17:11:36;5.70;96.70
31729;DHT22;18309;43.658;1.312;2023-01-29T17:14:07;5.70;97.00
31729;DHT22;18309;43.658;1.312;2023-01-29T17:16:36;5.60;97.00
31729;DHT22;18309;43.658;1.312;2023-01-29T17:19:16;5.70;97.00
31729;DHT22;18309;43.658;1.312;2023-01-29T17:21:57;5.70;96.80
31729;DHT22;18309;43.658;1.312;2023-01-29T17:24:33;5.60;96.50
31729;DHT22;18309;43.658;1.312;2023-01-29T17:27:00;5.70;96.60
31729;DHT22;18309;43.658;1.312;2023-01-29T17:29:29;5.60;96.70
31729;DHT22;18309;43.658;1.312;2023-01-29T17:31:56;5.60;96.80
31729;DHT22;18309;43.658;1.312;2023-01-29T17:34:24;5.60;97.20
31729;DHT22;18309;43.658;1.312;2023-01-29T17:36:50;5.60;97.20
31729;DHT22;18309;43.658;1.312;2023-01-29T17:39:19;5.60;97.10
31729;DHT22;18309;43.658;1.312;2023-01-29T17:41:51;5.60;96.90
31729;DHT22;18309;43.658;1.312;2023-01-29T17:44:17;5.60;97.00
31729;DHT22;18309;43.658;1.312;2023-01-29T17:46:43;5.60;97.40
31729;DHT22;18309;43.658;1.312;2023-01-29T17:51:41;5.60;98.30
31729;DHT22;18309;43.658;1.312;2023-01-29T17:54:07;5.60;98.90
31729;DHT22;18309;43.658;1.312;2023-01-29T17:56:33;5.70;99.10
31729;DHT22;18309;43.658;1.312;2023-01-29T17:58:58;5.80;98.80
31729;DHT22;18309;43.658;1.312;2023-01-29T18:01:25;5.80;98.80
31729;DHT22;18309;43.658;1.312;2023-01-29T18:03:50;5.80;98.70
31729;DHT22;18309;43.658;1.312;2023-01-29T18:06:25;5.90;98.70
31729;DHT22;18309;43.658;1.312;2023-01-29T18:08:52;5.90;98.90
31729;DHT22;18309;43.658;1.312;2023-01-29T18:11:17;5.90;98.90
31729;DHT22;18309;43.658;1.312;2023-01-29T18:13:43;5.90;99.00
31729;DHT22;18309;43.658;1.312;2023-01-29T18:16:09;6.00;99.20
31729;DHT22;18309;43.658;1.312;2023-01-29T18:18:34;6.00;99.20
31729;DHT22;18309;43.658;1.312;2023-01-29T18:21:00;6.00;98.60
31729;DHT22;18309;43.658;1.312;2023-01-29T18:23:26;6.00;98.60
31729;DHT22;18309;43.658;1.312;2023-01-29T18:25:53;6.00;98.60
31729;DHT22;18309;43.658;1.312;2023-01-29T18:28:22;6.00;98.70
31729;DHT22;18309;43.658;1.312;2023-01-29T18:30:48;6.00;98.50
31729;DHT22;18309;43.658;1.312;2023-01-29T18:33:15;6.00;98.50
31729;DHT22;18309;43.658;1.312;2023-01-29T18:35:43;6.00;98.20
31729;DHT22;18309;43.658;1.312;2023-01-29T18:38:08;6.00;98.30
31729;DHT22;18309;43.658;1.312;2023-01-29T18:40:34;6.00;98.20
31729;DHT22;18309;43.658;1.312;2023-01-29T18:43:00;6.10;98.20
31729;DHT22;18309;43.658;1.312;2023-01-29T18:45:27;6.00;97.90
31729;DHT22;18309;43.658;1.312;2023-01-29T18:47:53;6.00;97.90
31729;DHT22;18309;43.658;1.312;2023-01-29T18:50:19;6.00;97.90
31729;DHT22;18309;43.658;1.312;2023-01-29T18:52:48;6.00;97.70
31729;DHT22;18309;43.658;1.312;2023-01-29T18:55:13;6.00;97.30
31729;DHT22;18309;43.658;1.312;2023-01-29T18:57:39;6.10;97.70
31729;DHT22;18309;43.658;1.312;2023-01-29T19:00:05;6.10;98.60
31729;DHT22;18309;43.658;1.312;2023-01-29T19:02:32;6.10;98.30
31729;DHT22;18309;43.658;1.312;2023-01-29T19:04:57;6.10;98.30
31729;DHT22;18309;43.658;1.312;2023-01-29T19:07:23;6.10;98.20
31729;DHT22;18309;43.658;1.312;2023-01-29T19:09:49;6.10;97.70
31729;DHT22;18309;43.658;1.312;2023-01-29T19:12:15;6.10;97.50
31729;DHT22;18309;43.658;1.312;2023-01-29T19:14:41;6.10;97.50
31729;DHT22;18309;43.658;1.312;2023-01-29T19:17:07;6.10;97.60
31729;DHT22;18309;43.658;1.312;2023-01-29T19:19:33;6.10;97.30
31729;DHT22;18309;43.658;1.312;2023-01-29T19:21:59;6.10;97.20
31729;DHT22;18309;43.658;1.312;2023-01-29T19:24:24;6.10;97.00
31729;DHT22;18309;43.658;1.312;2023-01-29T19:26:50;6.10;97.20